sensor_id;sensor_type;location;lat;lon;timestamp;temperature;humidity
67157;SHT31;54086;50.126;8.710;2023-06-22T00:00:42;23.33;75.21
67157;SHT31;54086;50.126;8.710;2023-06-22T00:03:07;23.33;75.17
67157;SHT31;54086;50.126;8.710;2023-06-22T00:05:33;23.44;75.32
67157;SHT31;54086;50.126;8.710;2023-06-22T00:08:02;23.63;74.52
67157;SHT31;54086;50.126;8.710;2023-06-22T00:10:28;23.74;73.98
67157;SHT31;54086;50.126;8.710;2023-06-22T00:12:53;23.82;73.58
67157;SHT31;54086;50.126;8.710;2023-06-22T00:15:19;23.98;73.13
67157;SHT31;54086;50.126;8.710;2023-06-22T00:17:45;23.98;73.19
67157;SHT31;54086;50.126;8.710;2023-06-22T00:20:11;23.94;73.07
67157;SHT31;54086;50.126;8.710;2023-06-22T00:22:36;23.89;73.05
67157;SHT31;54086;50.126;8.710;2023-06-22T00:25:08;23.77;73.11
67157;SHT31;54086;50.126;8.710;2023-06-22T00:27:35;23.79;72.80
67157;SHT31;54086;50.126;8.710;2023-06-22T00:30:00;23.79;72.76
67157;SHT31;54086;50.126;8.710;2023-06-22T00:32:26;23.74;72.36
67157;SHT31;54086;50.126;8.710;2023-06-22T00:34:51;23.74;72.78
67157;SHT31;54086;50.126;8.710;2023-06-22T00:37:17;23.70;72.82
67157;SHT31;54086;50.126;8.710;2023-06-22T00:39:44;23.74;72.84
67157;SHT31;54086;50.126;8.710;2023-06-22T00:42:10;23.65;72.94
67157;SHT31;54086;50.126;8.710;2023-06-22T00:44:36;23.56;73.31
67157;SHT31;54086;50.126;8.710;2023-06-22T00:47:02;23.54;73.27
67157;SHT31;54086;50.126;8.710;2023-06-22T00:49:28;23.47;73.48
67157;SHT31;54086;50.126;8.710;2023-06-22T00:51:54;23.47;73.63
67157;SHT31;54086;50.126;8.710;2023-06-22T00:54:20;23.36;73.77
67157;SHT31;54086;50.126;8.710;2023-06-22T00:56:56;23.46;73.53
67157;SHT31;54086;50.126;8.710;2023-06-22T00:59:23;23.40;73.62
67157;SHT31;54086;50.126;8.710;2023-06-22T01:01:49;23.34;73.84
67157;SHT31;54086;50.126;8.710;2023-06-22T01:04:15;23.30;73.83
67157;SHT31;54086;50.126;8.710;2023-06-22T01:06:54;23.26;74.03
67157;SHT31;54086;50.126;8.710;2023-06-22T01:09:32;23.44;73.36
67157;SHT31;54086;50.126;8.710;2023-06-22T01:12:02;23.47;73.25
67157;SHT31;54086;50.126;8.710;2023-06-22T01:14:45;23.58;73.99
67157;SHT31;54086;50.126;8.710;2023-06-22T01:17:13;23.58;75.55
67157;SHT31;54086;50.126;8.710;2023-06-22T01:22:16;23.61;76.27
67157;SHT31;54086;50.126;8.710;2023-06-22T01:25:00;23.23;78.86
67157;SHT31;54086;50.126;8.710;2023-06-22T01:27:53;22.99;80.39
67157;SHT31;54086;50.126;8.710;2023-06-22T01:30:22;22.81;79.26
67157;SHT31;54086;50.126;8.710;2023-06-22T01:32:51;22.72;79.18
67157;SHT31;54086;50.126;8.710;2023-06-22T01:35:17;22.33;82.66
67157;SHT31;54086;50.126;8.710;2023-06-22T01:37:43;22.18;82.44
67157;SHT31;54086;50.126;8.710;2023-06-22T01:40:09;22.20;83.19
67157;SHT31;54086;50.126;8.710;2023-06-22T01:42:36;22.33;82.93
67157;SHT31;54086;50.126;8.710;2023-06-22T01:45:03;22.43;83.60
67157;SHT31;54086;50.126;8.710;2023-06-22T01:47:28;22.49;84.05
67157;SHT31;54086;50.126;8.710;2023-06-22T01:49:54;22.38;84.02
67157;SHT31;54086;50.126;8.710;2023-06-22T01:52:20;22.51;83.67
67157;SHT31;54086;50.126;8.710;2023-06-22T01:54:46;22.51;83.64
67157;SHT31;54086;50.126;8.710;2023-06-22T01:57:12;22.40;83.97
67157;SHT31;54086;50.126;8.710;2023-06-22T01:59:55;22.11;84.57
67157;SHT31;54086;50.126;8.710;2023-06-22T02:02:23;21.87;85.65
67157;SHT31;54086;50.126;8.710;2023-06-22T02:07:31;21.97;85.48
67157;SHT31;54086;50.126;8.710;2023-06-22T02:09:58;21.98;84.23
67157;SHT31;54086;50.126;8.710;2023-06-22T02:12:25;22.28;83.83
67157;SHT31;54086;50.126;8.710;2023-06-22T02:14:53;22.31;84.02
67157;SHT31;54086;50.126;8.710;2023-06-22T02:17:18;22.41;83.54
67157;SHT31;54086;50.126;8.710;2023-06-22T02:19:44;22.41;83.21
67157;SHT31;54086;50.126;8.710;2023-06-22T02:22:09;22.31;83.83
67157;SHT31;54086;50.126;8.710;2023-06-22T02:24:35;22.40;83.86
67157;SHT31;54086;50.126;8.710;2023-06-22T02:27:01;22.33;84.48
67157;SHT31;54086;50.126;8.710;2023-06-22T02:29:27;22.36;83.97
67157;SHT31;54086;50.126;8.710;2023-06-22T02:31:54;22.18;84.62
67157;SHT31;54086;50.126;8.710;2023-06-22T02:34:19;22.10;84.35
67157;SHT31;54086;50.126;8.710;2023-06-22T02:36:46;21.94;85.14
67157;SHT31;54086;50.126;8.710;2023-06-22T02:39:18;21.89;86.20
67157;SHT31;54086;50.126;8.710;2023-06-22T02:41:44;21.86;86.00
67157;SHT31;54086;50.126;8.710;2023-06-22T02:44:09;21.67;86.36
67157;SHT31;54086;50.126;8.710;2023-06-22T02:46:35;21.73;86.11
67157;SHT31;54086;50.126;8.710;2023-06-22T02:49:01;21.65;85.69
67157;SHT31;54086;50.126;8.710;2023-06-22T02:51:26;21.75;87.41
67157;SHT31;54086;50.126;8.710;2023-06-22T02:53:52;21.83;86.52
67157;SHT31;54086;50.126;8.710;2023-06-22T02:56:21;21.94;83.94
67157;SHT31;54086;50.126;8.710;2023-06-22T02:58:50;22.03;83.88
67157;SHT31;54086;50.126;8.710;2023-06-22T03:01:15;22.13;84.11
67157;SHT31;54086;50.126;8.710;2023-06-22T03:03:41;21.82;84.88
67157;SHT31;54086;50.126;8.710;2023-06-22T03:06:06;21.80;86.01
67157;SHT31;54086;50.126;8.710;2023-06-22T03:08:32;21.82;85.14
67157;SHT31;54086;50.126;8.710;2023-06-22T03:10:57;21.94;84.78
67157;SHT31;54086;50.126;8.710;2023-06-22T03:13:23;21.94;84.19
67157;SHT31;54086;50.126;8.710;2023-06-22T03:15:48;21.92;84.31
67157;SHT31;54086;50.126;8.710;2023-06-22T03:18:14;21.93;84.14
67157;SHT31;54086;50.126;8.710;2023-06-22T03:20:41;21.98;84.31
67157;SHT31;54086;50.126;8.710;2023-06-22T03:23:06;22.08;84.68
67157;SHT31;54086;50.126;8.710;2023-06-22T03:25:31;21.85;85.40
67157;SHT31;54086;50.126;8.710;2023-06-22T03:27:58;21.56;84.86
67157;SHT31;54086;50.126;8.710;2023-06-22T03:30:24;21.46;86.14
67157;SHT31;54086;50.126;8.710;2023-06-22T03:32:49;21.43;85.89
67157;SHT31;54086;50.126;8.710;2023-06-22T03:35:15;21.28;86.71
67157;SHT31;54086;50.126;8.710;2023-06-22T03:37:40;21.35;85.70
67157;SHT31;54086;50.126;8.710;2023-06-22T03:40:06;21.34;86.14
67157;SHT31;54086;50.126;8.710;2023-06-22T03:42:35;21.37;86.22
67157;SHT31;54086;50.126;8.710;2023-06-22T03:45:01;21.39;85.79
67157;SHT31;54086;50.126;8.710;2023-06-22T03:47:28;21.27;86.20
67157;SHT31;54086;50.126;8.710;2023-06-22T03:49:53;21.43;85.87
67157;SHT31;54086;50.126;8.710;2023-06-22T03:52:20;21.42;85.43
67157;SHT31;54086;50.126;8.710;2023-06-22T03:54:47;21.46;85.34
67157;SHT31;54086;50.126;8.710;2023-06-22T03:57:12;21.43;85.49
67157;SHT31;54086;50.126;8.710;2023-06-22T03:59:38;21.52;85.22
67157;SHT31;54086;50.126;8.710;2023-06-22T04:02:03;21.43;85.48
67157;SHT31;54086;50.126;8.710;2023-06-22T04:04:29;21.46;85.61
67157;SHT31;54086;50.126;8.710;2023-06-22T04:06:54;21.38;86.32
67157;SHT31;54086;50.126;8.710;2023-06-22T04:09:20;21.42;86.07
67157;SHT31;54086;50.126;8.710;2023-06-22T04:11:46;21.35;86.58
67157;SHT31;54086;50.126;8.710;2023-06-22T04:14:12;21.42;86.24
67157;SHT31;54086;50.126;8.710;2023-06-22T04:16:37;21.39;86.72
67157;SHT31;54086;50.126;8.710;2023-06-22T04:19:03;21.42;86.43
67157;SHT31;54086;50.126;8.710;2023-06-22T04:21:28;21.46;86.11
67157;SHT31;54086;50.126;8.710;2023-06-22T04:23:54;21.39;85.94
67157;SHT31;54086;50.126;8.710;2023-06-22T04:26:19;21.35;86.37
67157;SHT31;54086;50.126;8.710;2023-06-22T04:28:48;21.45;85.87
67157;SHT31;54086;50.126;8.710;2023-06-22T04:31:17;21.38;86.70
67157;SHT31;54086;50.126;8.710;2023-06-22T04:33:43;21.28;86.52
67157;SHT31;54086;50.126;8.710;2023-06-22T04:36:08;21.42;86.41
67157;SHT31;54086;50.126;8.710;2023-06-22T04:38:34;21.41;86.68
67157;SHT31;54086;50.126;8.710;2023-06-22T04:40:59;21.34;86.95
67157;SHT31;54086;50.126;8.710;2023-06-22T04:43:28;21.42;86.73
67157;SHT31;54086;50.126;8.710;2023-06-22T04:45:56;21.48;86.38
67157;SHT31;54086;50.126;8.710;2023-06-22T04:48:28;21.46;86.83
67157;SHT31;54086;50.126;8.710;2023-06-22T04:50:58;21.45;87.24
67157;SHT31;54086;50.126;8.710;2023-06-22T04:53:30;21.46;87.09
67157;SHT31;54086;50.126;8.710;2023-06-22T04:55:56;21.42;86.95
67157;SHT31;54086;50.126;8.710;2023-06-22T04:58:21;21.48;86.69
67157;SHT31;54086;50.126;8.710;2023-06-22T05:00:47;21.62;86.14
67157;SHT31;54086;50.126;8.710;2023-06-22T05:03:12;21.63;86.38
67157;SHT31;54086;50.126;8.710;2023-06-22T05:05:38;21.56;86.72
67157;SHT31;54086;50.126;8.710;2023-06-22T05:08:04;21.69;86.59
67157;SHT31;54086;50.126;8.710;2023-06-22T05:10:32;21.89;86.05
67157;SHT31;54086;50.126;8.710;2023-06-22T05:12:58;21.83;86.27
67157;SHT31;54086;50.126;8.710;2023-06-22T05:15:23;21.87;86.07
67157;SHT31;54086;50.126;8.710;2023-06-22T05:17:53;21.87;85.94
67157;SHT31;54086;50.126;8.710;2023-06-22T05:20:18;21.96;86.05
67157;SHT31;54086;50.126;8.710;2023-06-22T05:22:44;21.92;86.25
67157;SHT31;54086;50.126;8.710;2023-06-22T05:25:10;21.98;86.03
67157;SHT31;54086;50.126;8.710;2023-06-22T05:27:36;21.93;86.22
67157;SHT31;54086;50.126;8.710;2023-06-22T05:30:08;22.01;86.27
67157;SHT31;54086;50.126;8.710;2023-06-22T05:32:34;22.03;85.67
67157;SHT31;54086;50.126;8.710;2023-06-22T05:34:59;22.08;86.04
67157;SHT31;54086;50.126;8.710;2023-06-22T05:37:25;22.14;85.57
67157;SHT31;54086;50.126;8.710;2023-06-22T05:39:51;22.24;85.53
67157;SHT31;54086;50.126;8.710;2023-06-22T05:42:17;22.21;85.50
67157;SHT31;54086;50.126;8.710;2023-06-22T05:44:42;22.27;85.08
67157;SHT31;54086;50.126;8.710;2023-06-22T05:47:07;22.34;85.25
67157;SHT31;54086;50.126;8.710;2023-06-22T05:49:33;22.43;84.79
67157;SHT31;54086;50.126;8.710;2023-06-22T05:51:59;22.47;84.92
67157;SHT31;54086;50.126;8.710;2023-06-22T05:54:25;22.58;84.33
67157;SHT31;54086;50.126;8.710;2023-06-22T05:56:51;22.61;84.38
67157;SHT31;54086;50.126;8.710;2023-06-22T05:59:17;22.84;83.51
67157;SHT31;54086;50.126;8.710;2023-06-22T06:01:42;22.85;83.68
67157;SHT31;54086;50.126;8.710;2023-06-22T06:04:08;22.79;83.95
67157;SHT31;54086;50.126;8.710;2023-06-22T06:06:34;22.89;83.64
67157;SHT31;54086;50.126;8.710;2023-06-22T06:09:00;23.09;83.00
67157;SHT31;54086;50.126;8.710;2023-06-22T06:11:25;23.15;82.95
67157;SHT31;54086;50.126;8.710;2023-06-22T06:13:51;23.00;83.57
67157;SHT31;54086;50.126;8.710;2023-06-22T06:16:17;23.15;83.16
67157;SHT31;54086;50.126;8.710;2023-06-22T06:18:45;23.36;82.79
67157;SHT31;54086;50.126;8.710;2023-06-22T06:21:11;23.47;82.62
67157;SHT31;54086;50.126;8.710;2023-06-22T06:23:36;23.54;82.73
67157;SHT31;54086;50.126;8.710;2023-06-22T06:26:02;23.42;82.78
67157;SHT31;54086;50.126;8.710;2023-06-22T06:28:30;23.74;81.94
67157;SHT31;54086;50.126;8.710;2023-06-22T06:30:57;23.68;81.84
67157;SHT31;54086;50.126;8.710;2023-06-22T06:33:25;23.75;81.73
67157;SHT31;54086;50.126;8.710;2023-06-22T06:35:53;23.81;81.28
67157;SHT31;54086;50.126;8.710;2023-06-22T06:38:22;24.02;80.80
67157;SHT31;54086;50.126;8.710;2023-06-22T06:40:49;24.24;80.27
67157;SHT31;54086;50.126;8.710;2023-06-22T06:43:17;24.26;80.18
67157;SHT31;54086;50.126;8.710;2023-06-22T06:45:44;24.55;79.44
67157;SHT31;54086;50.126;8.710;2023-06-22T06:48:12;24.64;79.06
67157;SHT31;54086;50.126;8.710;2023-06-22T06:53:08;24.70;78.76
67157;SHT31;54086;50.126;8.710;2023-06-22T06:55:34;24.86;78.23
67157;SHT31;54086;50.126;8.710;2023-06-22T06:58:00;24.73;78.71
67157;SHT31;54086;50.126;8.710;2023-06-22T07:00:26;24.69;78.88
67157;SHT31;54086;50.126;8.710;2023-06-22T07:02:52;24.72;78.43
67157;SHT31;54086;50.126;8.710;2023-06-22T07:05:18;24.64;78.94
67157;SHT31;54086;50.126;8.710;2023-06-22T07:07:43;24.80;78.47
67157;SHT31;54086;50.126;8.710;2023-06-22T07:10:10;24.91;78.03
67157;SHT31;54086;50.126;8.710;2023-06-22T07:12:36;25.18;77.34
67157;SHT31;54086;50.126;8.710;2023-06-22T07:15:03;25.13;77.79
67157;SHT31;54086;50.126;8.710;2023-06-22T07:17:30;25.27;77.56
67157;SHT31;54086;50.126;8.710;2023-06-22T07:19:55;25.15;77.13
67157;SHT31;54086;50.126;8.710;2023-06-22T07:22:21;25.13;77.50
67157;SHT31;54086;50.126;8.710;2023-06-22T07:24:46;25.11;77.21
67157;SHT31;54086;50.126;8.710;2023-06-22T07:27:11;25.18;77.26
67157;SHT31;54086;50.126;8.710;2023-06-22T07:29:37;25.13;77.62
67157;SHT31;54086;50.126;8.710;2023-06-22T07:32:05;25.23;77.90
67157;SHT31;54086;50.126;8.710;2023-06-22T07:34:31;25.24;77.36
67157;SHT31;54086;50.126;8.710;2023-06-22T07:36:56;24.98;77.41
67157;SHT31;54086;50.126;8.710;2023-06-22T07:39:22;24.98;77.44
67157;SHT31;54086;50.126;8.710;2023-06-22T07:41:51;25.21;77.06
67157;SHT31;54086;50.126;8.710;2023-06-22T07:44:16;25.31;76.98
67157;SHT31;54086;50.126;8.710;2023-06-22T07:46:42;25.31;76.73
67157;SHT31;54086;50.126;8.710;2023-06-22T07:49:07;25.28;77.47
67157;SHT31;54086;50.126;8.710;2023-06-22T07:51:35;25.48;76.96
67157;SHT31;54086;50.126;8.710;2023-06-22T07:54:01;25.73;76.74
67157;SHT31;54086;50.126;8.710;2023-06-22T07:56:27;25.41;77.23
67157;SHT31;54086;50.126;8.710;2023-06-22T07:58:55;25.71;76.40
67157;SHT31;54086;50.126;8.710;2023-06-22T08:01:23;25.88;76.51
67157;SHT31;54086;50.126;8.710;2023-06-22T08:03:49;25.86;76.76
67157;SHT31;54086;50.126;8.710;2023-06-22T08:06:15;26.13;76.17
67157;SHT31;54086;50.126;8.710;2023-06-22T08:08:40;26.17;76.11
67157;SHT31;54086;50.126;8.710;2023-06-22T08:11:07;26.26;75.12
67157;SHT31;54086;50.126;8.710;2023-06-22T08:13:34;26.31;74.72
67157;SHT31;54086;50.126;8.710;2023-06-22T08:16:00;26.48;74.53
67157;SHT31;54086;50.126;8.710;2023-06-22T08:18:26;26.36;74.93
67157;SHT31;54086;50.126;8.710;2023-06-22T08:20:53;26.54;74.48
67157;SHT31;54086;50.126;8.710;2023-06-22T08:23:19;26.55;74.26
67157;SHT31;54086;50.126;8.710;2023-06-22T08:25:45;26.48;73.78
67157;SHT31;54086;50.126;8.710;2023-06-22T08:28:10;26.67;73.58
67157;SHT31;54086;50.126;8.710;2023-06-22T08:30:38;26.75;73.68
67157;SHT31;54086;50.126;8.710;2023-06-22T08:33:03;26.72;73.12
67157;SHT31;54086;50.126;8.710;2023-06-22T08:35:29;26.75;73.05
67157;SHT31;54086;50.126;8.710;2023-06-22T08:37:55;26.99;73.42
67157;SHT31;54086;50.126;8.710;2023-06-22T08:40:22;26.99;72.90
67157;SHT31;54086;50.126;8.710;2023-06-22T08:42:48;27.13;72.44
67157;SHT31;54086;50.126;8.710;2023-06-22T08:45:14;27.32;71.87
67157;SHT31;54086;50.126;8.710;2023-06-22T08:47:41;27.79;70.91
67157;SHT31;54086;50.126;8.710;2023-06-22T08:50:07;28.05;70.04
67157;SHT31;54086;50.126;8.710;2023-06-22T08:52:34;28.28;69.90
67157;SHT31;54086;50.126;8.710;2023-06-22T08:54:59;28.62;68.37
67157;SHT31;54086;50.126;8.710;2023-06-22T08:57:24;28.84;67.52
67157;SHT31;54086;50.126;8.710;2023-06-22T08:59:50;28.82;67.82
67157;SHT31;54086;50.126;8.710;2023-06-22T09:02:17;28.83;67.14
67157;SHT31;54086;50.126;8.710;2023-06-22T09:04:43;29.13;66.78
67157;SHT31;54086;50.126;8.710;2023-06-22T09:07:08;28.84;67.22
67157;SHT31;54086;50.126;8.710;2023-06-22T09:09:33;28.79;67.18
67157;SHT31;54086;50.126;8.710;2023-06-22T09:11:59;29.14;67.15
67157;SHT31;54086;50.126;8.710;2023-06-22T09:14:24;29.33;66.44
67157;SHT31;54086;50.126;8.710;2023-06-22T09:16:50;29.48;66.66
67157;SHT31;54086;50.126;8.710;2023-06-22T09:19:15;29.48;66.43
67157;SHT31;54086;50.126;8.710;2023-06-22T09:21:41;29.26;66.29
67157;SHT31;54086;50.126;8.710;2023-06-22T09:24:06;29.26;65.72
67157;SHT31;54086;50.126;8.710;2023-06-22T09:26:32;29.02;66.28
67157;SHT31;54086;50.126;8.710;2023-06-22T09:28:57;29.58;65.22
67157;SHT31;54086;50.126;8.710;2023-06-22T09:31:23;29.21;65.75
67157;SHT31;54086;50.126;8.710;2023-06-22T09:33:53;29.59;65.20
67157;SHT31;54086;50.126;8.710;2023-06-22T09:36:22;30.35;63.89
67157;SHT31;54086;50.126;8.710;2023-06-22T09:38:48;30.56;62.96
67157;SHT31;54086;50.126;8.710;2023-06-22T09:41:15;30.83;61.51
67157;SHT31;54086;50.126;8.710;2023-06-22T09:43:41;30.50;62.37
67157;SHT31;54086;50.126;8.710;2023-06-22T09:46:06;30.57;61.95
67157;SHT31;54086;50.126;8.710;2023-06-22T09:48:32;30.73;61.89
67157;SHT31;54086;50.126;8.710;2023-06-22T09:50:57;30.16;62.78
67157;SHT31;54086;50.126;8.710;2023-06-22T09:53:23;30.35;62.16
67157;SHT31;54086;50.126;8.710;2023-06-22T09:55:48;30.88;61.29
67157;SHT31;54086;50.126;8.710;2023-06-22T09:58:14;30.91;61.18
67157;SHT31;54086;50.126;8.710;2023-06-22T10:00:39;31.11;58.48
67157;SHT31;54086;50.126;8.710;2023-06-22T10:03:06;31.24;57.95
67157;SHT31;54086;50.126;8.710;2023-06-22T10:05:32;31.36;57.35
67157;SHT31;54086;50.126;8.710;2023-06-22T10:07:57;31.58;55.88
67157;SHT31;54086;50.126;8.710;2023-06-22T10:10:23;31.55;55.55
67157;SHT31;54086;50.126;8.710;2023-06-22T10:12:55;31.67;55.68
67157;SHT31;54086;50.126;8.710;2023-06-22T10:15:22;31.93;55.29
67157;SHT31;54086;50.126;8.710;2023-06-22T10:17:47;32.07;55.32
67157;SHT31;54086;50.126;8.710;2023-06-22T10:20:15;31.59;56.42
67157;SHT31;54086;50.126;8.710;2023-06-22T10:22:43;31.41;56.26
67157;SHT31;54086;50.126;8.710;2023-06-22T10:25:10;31.42;57.49
67157;SHT31;54086;50.126;8.710;2023-06-22T10:27:36;31.28;57.74
67157;SHT31;54086;50.126;8.710;2023-06-22T10:30:08;31.36;57.46
67157;SHT31;54086;50.126;8.710;2023-06-22T10:32:34;31.05;58.00
67157;SHT31;54086;50.126;8.710;2023-06-22T10:34:59;31.35;57.28
67157;SHT31;54086;50.126;8.710;2023-06-22T10:37:25;31.61;56.30
67157;SHT31;54086;50.126;8.710;2023-06-22T10:39:50;31.76;56.04
67157;SHT31;54086;50.126;8.710;2023-06-22T10:42:16;31.65;57.03
67157;SHT31;54086;50.126;8.710;2023-06-22T10:44:41;31.89;56.57
67157;SHT31;54086;50.126;8.710;2023-06-22T10:47:09;32.31;55.30
67157;SHT31;54086;50.126;8.710;2023-06-22T10:49:34;32.37;53.85
67157;SHT31;54086;50.126;8.710;2023-06-22T10:52:01;32.45;53.15
67157;SHT31;54086;50.126;8.710;2023-06-22T10:54:26;32.24;53.03
67157;SHT31;54086;50.126;8.710;2023-06-22T10:56:52;32.78;52.32
67157;SHT31;54086;50.126;8.710;2023-06-22T10:59:17;32.83;51.89
67157;SHT31;54086;50.126;8.710;2023-06-22T11:01:43;33.47;51.46
67157;SHT31;54086;50.126;8.710;2023-06-22T11:04:08;33.09;52.18
67157;SHT31;54086;50.126;8.710;2023-06-22T11:06:33;33.02;52.06
67157;SHT31;54086;50.126;8.710;2023-06-22T11:08:59;33.67;51.56
67157;SHT31;54086;50.126;8.710;2023-06-22T11:11:25;33.57;51.77
67157;SHT31;54086;50.126;8.710;2023-06-22T11:13:52;33.46;52.50
67157;SHT31;54086;50.126;8.710;2023-06-22T11:16:17;32.83;53.23
67157;SHT31;54086;50.126;8.710;2023-06-22T11:18:43;32.98;53.25
67157;SHT31;54086;50.126;8.710;2023-06-22T11:21:08;32.79;53.00
67157;SHT31;54086;50.126;8.710;2023-06-22T11:23:34;32.65;53.78
67157;SHT31;54086;50.126;8.710;2023-06-22T11:26:01;32.79;53.32
67157;SHT31;54086;50.126;8.710;2023-06-22T11:28:33;31.97;54.70
67157;SHT31;54086;50.126;8.710;2023-06-22T11:31:02;32.11;54.77
67157;SHT31;54086;50.126;8.710;2023-06-22T11:33:30;32.99;53.35
67157;SHT31;54086;50.126;8.710;2023-06-22T11:35:56;32.33;54.42
67157;SHT31;54086;50.126;8.710;2023-06-22T11:38:24;32.83;54.06
67157;SHT31;54086;50.126;8.710;2023-06-22T11:40:52;33.12;53.42
67157;SHT31;54086;50.126;8.710;2023-06-22T11:43:23;32.92;53.43
67157;SHT31;54086;50.126;8.710;2023-06-22T11:45:50;33.08;53.88
67157;SHT31;54086;50.126;8.710;2023-06-22T11:48:19;33.25;53.30
67157;SHT31;54086;50.126;8.710;2023-06-22T11:50:47;32.82;54.57
67157;SHT31;54086;50.126;8.710;2023-06-22T11:53:16;32.72;54.64
67157;SHT31;54086;50.126;8.710;2023-06-22T11:55:46;32.89;54.08
67157;SHT31;54086;50.126;8.710;2023-06-22T11:58:15;33.12;53.87
67157;SHT31;54086;50.126;8.710;2023-06-22T12:00:45;32.79;54.13
67157;SHT31;54086;50.126;8.710;2023-06-22T12:03:13;33.08;53.55
67157;SHT31;54086;50.126;8.710;2023-06-22T12:05:41;32.79;54.17
67157;SHT31;54086;50.126;8.710;2023-06-22T12:08:10;32.40;55.26
67157;SHT31;54086;50.126;8.710;2023-06-22T12:10:41;32.42;54.82
67157;SHT31;54086;50.126;8.710;2023-06-22T12:13:09;32.75;54.54
67157;SHT31;54086;50.126;8.710;2023-06-22T12:15:37;33.56;53.13
67157;SHT31;54086;50.126;8.710;2023-06-22T12:18:05;33.27;53.15
67157;SHT31;54086;50.126;8.710;2023-06-22T12:20:31;33.32;53.32
67157;SHT31;54086;50.126;8.710;2023-06-22T12:22:58;34.00;52.33
67157;SHT31;54086;50.126;8.710;2023-06-22T12:25:25;33.77;52.48
67157;SHT31;54086;50.126;8.710;2023-06-22T12:27:52;34.41;51.32
67157;SHT31;54086;50.126;8.710;2023-06-22T12:30:23;34.99;49.92
67157;SHT31;54086;50.126;8.710;2023-06-22T12:32:52;34.65;50.57
67157;SHT31;54086;50.126;8.710;2023-06-22T12:35:20;34.93;50.73
67157;SHT31;54086;50.126;8.710;2023-06-22T12:37:49;34.90;50.83
67157;SHT31;54086;50.126;8.710;2023-06-22T12:40:18;35.04;50.63
67157;SHT31;54086;50.126;8.710;2023-06-22T12:42:46;34.22;52.16
67157;SHT31;54086;50.126;8.710;2023-06-22T12:45:14;34.62;51.01
67157;SHT31;54086;50.126;8.710;2023-06-22T12:47:43;33.77;51.52
67157;SHT31;54086;50.126;8.710;2023-06-22T12:50:11;33.64;52.58
67157;SHT31;54086;50.126;8.710;2023-06-22T12:52:40;32.74;53.38
67157;SHT31;54086;50.126;8.710;2023-06-22T12:55:07;32.41;54.18
67157;SHT31;54086;50.126;8.710;2023-06-22T12:57:34;32.57;54.05
67157;SHT31;54086;50.126;8.710;2023-06-22T13:00:01;32.99;53.43
67157;SHT31;54086;50.126;8.710;2023-06-22T13:02:29;32.71;53.97
67157;SHT31;54086;50.126;8.710;2023-06-22T13:04:57;32.20;54.82
67157;SHT31;54086;50.126;8.710;2023-06-22T13:07:25;32.35;54.99
67157;SHT31;54086;50.126;8.710;2023-06-22T13:09:53;32.02;55.75
67157;SHT31;54086;50.126;8.710;2023-06-22T13:12:21;31.67;56.12
67157;SHT31;54086;50.126;8.710;2023-06-22T13:14:48;31.67;56.44
67157;SHT31;54086;50.126;8.710;2023-06-22T13:17:17;31.87;56.39
67157;SHT31;54086;50.126;8.710;2023-06-22T13:19:44;31.66;56.40
67157;SHT31;54086;50.126;8.710;2023-06-22T13:24:56;31.66;56.93
67157;SHT31;54086;50.126;8.710;2023-06-22T13:27:21;31.86;56.82
67157;SHT31;54086;50.126;8.710;2023-06-22T13:29:47;32.33;55.99
67157;SHT31;54086;50.126;8.710;2023-06-22T13:32:12;32.60;55.39
67157;SHT31;54086;50.126;8.710;2023-06-22T13:34:38;32.81;54.82
67157;SHT31;54086;50.126;8.710;2023-06-22T13:37:03;32.98;54.56
67157;SHT31;54086;50.126;8.710;2023-06-22T13:39:29;32.54;55.54
67157;SHT31;54086;50.126;8.710;2023-06-22T13:41:54;32.74;55.26
67157;SHT31;54086;50.126;8.710;2023-06-22T13:44:20;32.13;56.05
67157;SHT31;54086;50.126;8.710;2023-06-22T13:46:48;31.93;56.07
67157;SHT31;54086;50.126;8.710;2023-06-22T13:49:15;31.96;56.81
67157;SHT31;54086;50.126;8.710;2023-06-22T13:51:42;32.28;55.94
67157;SHT31;54086;50.126;8.710;2023-06-22T13:54:10;32.96;55.14
67157;SHT31;54086;50.126;8.710;2023-06-22T13:56:37;33.81;53.97
67157;SHT31;54086;50.126;8.710;2023-06-22T13:59:03;33.73;54.35
67157;SHT31;54086;50.126;8.710;2023-06-22T14:01:30;34.15;53.28
67157;SHT31;54086;50.126;8.710;2023-06-22T14:03:58;33.86;53.38
67157;SHT31;54086;50.126;8.710;2023-06-22T14:06:25;33.54;53.52
67157;SHT31;54086;50.126;8.710;2023-06-22T14:08:52;34.82;51.90
67157;SHT31;54086;50.126;8.710;2023-06-22T14:11:20;34.62;51.94
67157;SHT31;54086;50.126;8.710;2023-06-22T14:13:47;35.03;50.89
67157;SHT31;54086;50.126;8.710;2023-06-22T14:16:14;35.61;50.26
67157;SHT31;54086;50.126;8.710;2023-06-22T14:18:40;35.73;50.55
67157;SHT31;54086;50.126;8.710;2023-06-22T14:21:09;35.14;51.01
67157;SHT31;54086;50.126;8.710;2023-06-22T14:23:36;35.43;50.92
67157;SHT31;54086;50.126;8.710;2023-06-22T14:26:04;35.71;49.77
67157;SHT31;54086;50.126;8.710;2023-06-22T14:28:32;34.95;51.62
67157;SHT31;54086;50.126;8.710;2023-06-22T14:30:59;34.24;52.10
67157;SHT31;54086;50.126;8.710;2023-06-22T14:33:25;33.64;52.90
67157;SHT31;54086;50.126;8.710;2023-06-22T14:35:52;33.22;53.94
67157;SHT31;54086;50.126;8.710;2023-06-22T14:38:19;33.78;53.45
67157;SHT31;54086;50.126;8.710;2023-06-22T14:40:46;33.78;52.83
67157;SHT31;54086;50.126;8.710;2023-06-22T14:43:14;33.93;51.22
67157;SHT31;54086;50.126;8.710;2023-06-22T14:45:41;33.37;50.55
67157;SHT31;54086;50.126;8.710;2023-06-22T14:48:08;33.23;50.63
67157;SHT31;54086;50.126;8.710;2023-06-22T14:50:36;33.15;50.53
67157;SHT31;54086;50.126;8.710;2023-06-22T14:53:04;32.98;49.56
67157;SHT31;54086;50.126;8.710;2023-06-22T14:55:31;32.89;50.13
67157;SHT31;54086;50.126;8.710;2023-06-22T14:57:57;32.86;50.05
67157;SHT31;54086;50.126;8.710;2023-06-22T15:00:23;32.98;50.02
67157;SHT31;54086;50.126;8.710;2023-06-22T15:02:51;32.91;49.99
67157;SHT31;54086;50.126;8.710;2023-06-22T15:05:18;32.50;50.30
67157;SHT31;54086;50.126;8.710;2023-06-22T15:07:45;32.48;50.60
67157;SHT31;54086;50.126;8.710;2023-06-22T15:10:11;32.25;50.72
67157;SHT31;54086;50.126;8.710;2023-06-22T15:12:38;32.23;50.77
67157;SHT31;54086;50.126;8.710;2023-06-22T15:15:06;32.28;50.89
67157;SHT31;54086;50.126;8.710;2023-06-22T15:17:37;32.16;51.09
67157;SHT31;54086;50.126;8.710;2023-06-22T15:20:05;32.25;51.05
67157;SHT31;54086;50.126;8.710;2023-06-22T15:22:32;32.14;51.36
67157;SHT31;54086;50.126;8.710;2023-06-22T15:24:59;32.04;51.43
67157;SHT31;54086;50.126;8.710;2023-06-22T15:27:27;31.86;51.89
67157;SHT31;54086;50.126;8.710;2023-06-22T15:29:55;31.93;51.82
67157;SHT31;54086;50.126;8.710;2023-06-22T15:32:24;31.80;51.88
67157;SHT31;54086;50.126;8.710;2023-06-22T15:34:50;31.92;52.04
67157;SHT31;54086;50.126;8.710;2023-06-22T15:37:20;31.83;52.04